S-y Atmosphere — ZCGY6 — position and weather

sailwx.info

Track history (hours):
 
Tides and Currents Weather Stations Pressure Air Temp Water Temp Dewpoint Dewpoint Depression Visibility Wind Speed Wind Dir Waves Ship Positions

S-y Atmosphere

Last reported at 2016-Sep-12 07:33 UTC. Time now 2016-Sep-27 08:45 UTC.
Position N 43°31' E 007°07'.
Warning: this ship's position is 15 days out of date.

Length 53 m; draft 4 m.

Type: Sailing vessel. MMSI: 319726000.

Date/timePositionNaut miles runAvg speedWind from/ knotsBaromVisibWave heightAir tempDewpointWater temp
2016-Sep-12 07:33N 43°31' E 007°07'  
2016-Sep-09 19:27N 43°31' E 006°57'4 1.9
2016-Sep-09 17:33N 43°32' E 007°01'1 0.4
2016-Sep-09 13:28N 43°31' E 006°60'1 1.5
2016-Sep-09 12:33N 43°32' E 007°00'0 0.0
2016-Sep-09 11:33N 43°32' E 007°00'0 0.0
2016-Sep-09 10:33N 43°32' E 007°00'4 0.1
2016-Sep-07 16:24N 43°29' E 006°58'4 5.0
2016-Sep-07 15:34N 43°33' E 007°00'0 0.0
2016-Sep-07 14:34N 43°33' E 007°00'0 0.0
2016-Sep-07 13:33N 43°33' E 007°00'0 0.0
2016-Sep-07 12:32N 43°33' E 007°00'0 0.0
2016-Sep-07 11:33N 43°33' E 007°00'0 0.2
2016-Sep-07 10:33N 43°33' E 007°01'3 0.1
2016-Sep-06 15:33N 43°30' E 006°59'  
Track history (hours):
 
Tides and Currents Weather Stations Pressure Air Temp Water Temp Dewpoint Dewpoint Depression Visibility Wind Speed Wind Dir Waves Ship Positions

S-y Atmosphere

Last reported at 2016-Sep-12 07:33 UTC. Time now 2016-Sep-27 08:45 UTC.
Position N 43°31' E 007°07'.
Warning: this ship's position is 15 days out of date.

Length 53 m; draft 4 m.

Type: Sailing vessel. MMSI: 319726000.

Date/timePositionNaut miles runAvg speedWind from/ knotsBaromVisibWave heightAir tempDewpointWater temp
2016-Sep-12 07:33N 43°31' E 007°07'  
2016-Sep-09 19:27N 43°31' E 006°57'4 1.9
2016-Sep-09 17:33N 43°32' E 007°01'1 0.4
2016-Sep-09 13:28N 43°31' E 006°60'1 1.5
2016-Sep-09 12:33N 43°32' E 007°00'0 0.0
2016-Sep-09 11:33N 43°32' E 007°00'0 0.0
2016-Sep-09 10:33N 43°32' E 007°00'4 0.1
2016-Sep-07 16:24N 43°29' E 006°58'4 5.0
2016-Sep-07 15:34N 43°33' E 007°00'0 0.0
2016-Sep-07 14:34N 43°33' E 007°00'0 0.0
2016-Sep-07 13:33N 43°33' E 007°00'0 0.0
2016-Sep-07 12:32N 43°33' E 007°00'0 0.0
2016-Sep-07 11:33N 43°33' E 007°00'0 0.2
2016-Sep-07 10:33N 43°33' E 007°01'3 0.1
2016-Sep-06 15:33N 43°30' E 006°59'  

Dump ship's entire track history